sensor_id;sensor_type;location;lat;lon;timestamp;temperature;humidity
22426;DHT22;11380;50.822;15.790;2023-08-30T00:03:44;13.80;99.90
22426;DHT22;11380;50.822;15.790;2023-08-30T00:08:51;13.80;99.90
22426;DHT22;11380;50.822;15.790;2023-08-30T00:14:03;13.80;99.90
22426;DHT22;11380;50.822;15.790;2023-08-30T00:19:10;13.90;99.90
22426;DHT22;11380;50.822;15.790;2023-08-30T00:24:17;13.90;99.90
22426;DHT22;11380;50.822;15.790;2023-08-30T00:29:24;13.70;99.90
22426;DHT22;11380;50.822;15.790;2023-08-30T00:34:30;13.60;99.90
22426;DHT22;11380;50.822;15.790;2023-08-30T00:39:40;13.60;99.90
22426;DHT22;11380;50.822;15.790;2023-08-30T00:44:46;13.70;99.90
22426;DHT22;11380;50.822;15.790;2023-08-30T00:49:53;13.70;99.90
22426;DHT22;11380;50.822;15.790;2023-08-30T00:54:59;13.80;99.90
22426;DHT22;11380;50.822;15.790;2023-08-30T01:00:06;13.80;99.90
22426;DHT22;11380;50.822;15.790;2023-08-30T01:05:14;13.70;99.90
22426;DHT22;11380;50.822;15.790;2023-08-30T01:10:26;13.70;99.90
22426;DHT22;11380;50.822;15.790;2023-08-30T01:15:32;13.80;99.90
22426;DHT22;11380;50.822;15.790;2023-08-30T01:20:42;13.80;99.90
22426;DHT22;11380;50.822;15.790;2023-08-30T01:31:09;13.70;99.90
22426;DHT22;11380;50.822;15.790;2023-08-30T01:36:19;13.80;99.90
22426;DHT22;11380;50.822;15.790;2023-08-30T01:41:30;13.90;99.90
22426;DHT22;11380;50.822;15.790;2023-08-30T01:46:37;14.00;99.90
22426;DHT22;11380;50.822;15.790;2023-08-30T01:51:45;14.00;99.90
22426;DHT22;11380;50.822;15.790;2023-08-30T01:56:52;14.10;99.90
22426;DHT22;11380;50.822;15.790;2023-08-30T02:01:59;14.10;99.90
22426;DHT22;11380;50.822;15.790;2023-08-30T02:07:20;14.10;99.90
22426;DHT22;11380;50.822;15.790;2023-08-30T02:12:37;13.90;99.90
22426;DHT22;11380;50.822;15.790;2023-08-30T02:17:41;14.10;99.90
22426;DHT22;11380;50.822;15.790;2023-08-30T02:22:49;14.10;99.90
22426;DHT22;11380;50.822;15.790;2023-08-30T02:27:55;14.10;99.90
22426;DHT22;11380;50.822;15.790;2023-08-30T02:33:01;14.20;99.90
22426;DHT22;11380;50.822;15.790;2023-08-30T02:38:09;14.20;99.90
22426;DHT22;11380;50.822;15.790;2023-08-30T02:43:15;14.20;99.90
22426;DHT22;11380;50.822;15.790;2023-08-30T02:48:22;14.10;99.90
22426;DHT22;11380;50.822;15.790;2023-08-30T02:53:30;14.10;99.90
22426;DHT22;11380;50.822;15.790;2023-08-30T02:58:37;14.10;99.90
22426;DHT22;11380;50.822;15.790;2023-08-30T03:03:45;14.20;99.90
22426;DHT22;11380;50.822;15.790;2023-08-30T03:08:53;14.20;99.90
22426;DHT22;11380;50.822;15.790;2023-08-30T03:14:00;14.20;99.90
22426;DHT22;11380;50.822;15.790;2023-08-30T03:19:08;14.10;99.90
22426;DHT22;11380;50.822;15.790;2023-08-30T03:24:15;14.10;99.90
22426;DHT22;11380;50.822;15.790;2023-08-30T03:29:22;14.00;99.90
22426;DHT22;11380;50.822;15.790;2023-08-30T03:34:28;14.10;99.90
22426;DHT22;11380;50.822;15.790;2023-08-30T03:39:35;14.10;99.90
22426;DHT22;11380;50.822;15.790;2023-08-30T03:44:42;14.20;99.90
22426;DHT22;11380;50.822;15.790;2023-08-30T03:49:49;14.20;99.90
22426;DHT22;11380;50.822;15.790;2023-08-30T03:54:57;14.30;99.90
22426;DHT22;11380;50.822;15.790;2023-08-30T04:00:05;14.20;99.90
22426;DHT22;11380;50.822;15.790;2023-08-30T04:05:12;14.20;99.90
22426;DHT22;11380;50.822;15.790;2023-08-30T04:10:18;14.20;99.90
22426;DHT22;11380;50.822;15.790;2023-08-30T04:15:25;14.20;99.90
22426;DHT22;11380;50.822;15.790;2023-08-30T04:20:32;13.90;99.90
22426;DHT22;11380;50.822;15.790;2023-08-30T04:25:40;13.90;99.90
22426;DHT22;11380;50.822;15.790;2023-08-30T04:30:49;14.00;99.90
22426;DHT22;11380;50.822;15.790;2023-08-30T04:35:59;14.00;99.90
22426;DHT22;11380;50.822;15.790;2023-08-30T04:41:08;14.00;99.90
22426;DHT22;11380;50.822;15.790;2023-08-30T04:46:16;14.00;99.90
22426;DHT22;11380;50.822;15.790;2023-08-30T04:51:22;14.00;99.90
22426;DHT22;11380;50.822;15.790;2023-08-30T04:56:29;13.70;99.90
22426;DHT22;11380;50.822;15.790;2023-08-30T05:01:35;13.60;99.90
22426;DHT22;11380;50.822;15.790;2023-08-30T05:06:44;13.80;99.90
22426;DHT22;11380;50.822;15.790;2023-08-30T05:11:50;13.80;99.90
22426;DHT22;11380;50.822;15.790;2023-08-30T05:16:57;13.80;99.90
22426;DHT22;11380;50.822;15.790;2023-08-30T05:22:02;13.90;99.90
22426;DHT22;11380;50.822;15.790;2023-08-30T05:27:10;13.90;99.90
22426;DHT22;11380;50.822;15.790;2023-08-30T05:32:19;13.90;99.90
22426;DHT22;11380;50.822;15.790;2023-08-30T05:37:26;14.00;99.90
22426;DHT22;11380;50.822;15.790;2023-08-30T05:42:33;14.00;99.90
22426;DHT22;11380;50.822;15.790;2023-08-30T05:47:40;13.90;99.90
22426;DHT22;11380;50.822;15.790;2023-08-30T05:52:47;13.90;99.90
22426;DHT22;11380;50.822;15.790;2023-08-30T05:57:55;13.80;99.90
22426;DHT22;11380;50.822;15.790;2023-08-30T06:03:02;13.80;99.90
22426;DHT22;11380;50.822;15.790;2023-08-30T06:08:12;14.00;99.90
22426;DHT22;11380;50.822;15.790;2023-08-30T06:13:18;13.90;99.90
22426;DHT22;11380;50.822;15.790;2023-08-30T06:18:32;13.80;99.90
22426;DHT22;11380;50.822;15.790;2023-08-30T06:23:38;13.90;99.90
22426;DHT22;11380;50.822;15.790;2023-08-30T06:28:45;13.80;99.90
22426;DHT22;11380;50.822;15.790;2023-08-30T06:33:54;13.80;99.90
22426;DHT22;11380;50.822;15.790;2023-08-30T06:39:01;13.90;99.90
22426;DHT22;11380;50.822;15.790;2023-08-30T06:44:08;14.10;99.90
22426;DHT22;11380;50.822;15.790;2023-08-30T06:49:15;14.00;99.90
22426;DHT22;11380;50.822;15.790;2023-08-30T06:54:22;14.10;99.90
22426;DHT22;11380;50.822;15.790;2023-08-30T06:59:30;14.10;99.90
22426;DHT22;11380;50.822;15.790;2023-08-30T07:04:37;14.10;99.90
22426;DHT22;11380;50.822;15.790;2023-08-30T07:09:44;14.20;99.90
22426;DHT22;11380;50.822;15.790;2023-08-30T07:14:51;14.20;99.90
22426;DHT22;11380;50.822;15.790;2023-08-30T07:19:58;14.20;99.90
22426;DHT22;11380;50.822;15.790;2023-08-30T07:25:06;14.00;99.90
22426;DHT22;11380;50.822;15.790;2023-08-30T07:30:15;14.00;99.90
22426;DHT22;11380;50.822;15.790;2023-08-30T07:35:22;14.00;99.90
22426;DHT22;11380;50.822;15.790;2023-08-30T07:40:28;14.20;99.90
22426;DHT22;11380;50.822;15.790;2023-08-30T07:45:36;14.10;99.90
22426;DHT22;11380;50.822;15.790;2023-08-30T07:50:42;14.00;99.90
22426;DHT22;11380;50.822;15.790;2023-08-30T07:55:50;14.10;99.90
22426;DHT22;11380;50.822;15.790;2023-08-30T08:00:58;14.10;99.90
22426;DHT22;11380;50.822;15.790;2023-08-30T08:06:05;14.00;99.90
22426;DHT22;11380;50.822;15.790;2023-08-30T08:11:11;14.00;99.90
22426;DHT22;11380;50.822;15.790;2023-08-30T08:16:19;13.80;99.90
22426;DHT22;11380;50.822;15.790;2023-08-30T08:21:25;13.90;99.90
22426;DHT22;11380;50.822;15.790;2023-08-30T08:26:32;14.00;99.90
22426;DHT22;11380;50.822;15.790;2023-08-30T08:31:39;13.90;99.90
22426;DHT22;11380;50.822;15.790;2023-08-30T08:36:46;13.80;99.90
22426;DHT22;11380;50.822;15.790;2023-08-30T08:41:54;13.80;99.90
22426;DHT22;11380;50.822;15.790;2023-08-30T08:47:02;13.80;99.90
22426;DHT22;11380;50.822;15.790;2023-08-30T08:52:10;13.80;99.90
22426;DHT22;11380;50.822;15.790;2023-08-30T08:57:19;13.80;99.90
22426;DHT22;11380;50.822;15.790;2023-08-30T09:02:28;13.80;99.90
22426;DHT22;11380;50.822;15.790;2023-08-30T09:07:34;14.00;99.90
22426;DHT22;11380;50.822;15.790;2023-08-30T09:12:43;14.00;99.90
22426;DHT22;11380;50.822;15.790;2023-08-30T09:17:50;14.10;99.90
22426;DHT22;11380;50.822;15.790;2023-08-30T09:22:58;14.10;99.90
22426;DHT22;11380;50.822;15.790;2023-08-30T09:28:04;14.10;99.90
22426;DHT22;11380;50.822;15.790;2023-08-30T09:33:11;14.30;99.90
22426;DHT22;11380;50.822;15.790;2023-08-30T09:38:18;14.20;99.90
22426;DHT22;11380;50.822;15.790;2023-08-30T09:43:24;14.10;99.90
22426;DHT22;11380;50.822;15.790;2023-08-30T09:48:32;14.30;99.90
22426;DHT22;11380;50.822;15.790;2023-08-30T09:53:41;14.10;99.90
22426;DHT22;11380;50.822;15.790;2023-08-30T09:58:51;14.20;99.90
22426;DHT22;11380;50.822;15.790;2023-08-30T10:04:00;14.00;99.90
22426;DHT22;11380;50.822;15.790;2023-08-30T10:09:09;14.00;99.90
22426;DHT22;11380;50.822;15.790;2023-08-30T10:14:17;14.00;99.90
22426;DHT22;11380;50.822;15.790;2023-08-30T10:19:29;13.90;99.90
22426;DHT22;11380;50.822;15.790;2023-08-30T10:24:48;14.10;99.90
22426;DHT22;11380;50.822;15.790;2023-08-30T10:29:54;14.50;99.90
22426;DHT22;11380;50.822;15.790;2023-08-30T10:35:02;14.30;99.90
22426;DHT22;11380;50.822;15.790;2023-08-30T10:40:10;14.50;99.90
22426;DHT22;11380;50.822;15.790;2023-08-30T10:45:22;14.70;99.90
22426;DHT22;11380;50.822;15.790;2023-08-30T10:50:33;14.70;99.90
22426;DHT22;11380;50.822;15.790;2023-08-30T10:55:40;14.50;99.90
22426;DHT22;11380;50.822;15.790;2023-08-30T11:00:47;14.40;99.90
22426;DHT22;11380;50.822;15.790;2023-08-30T11:05:55;14.40;99.90
22426;DHT22;11380;50.822;15.790;2023-08-30T11:11:05;14.40;99.90
22426;DHT22;11380;50.822;15.790;2023-08-30T11:16:13;14.60;99.90
22426;DHT22;11380;50.822;15.790;2023-08-30T11:21:21;14.80;99.90
22426;DHT22;11380;50.822;15.790;2023-08-30T11:26:28;14.50;99.90
22426;DHT22;11380;50.822;15.790;2023-08-30T11:31:36;14.60;99.90
22426;DHT22;11380;50.822;15.790;2023-08-30T11:36:42;14.70;99.90
22426;DHT22;11380;50.822;15.790;2023-08-30T11:41:48;14.60;99.90
22426;DHT22;11380;50.822;15.790;2023-08-30T11:46:59;14.80;99.90
22426;DHT22;11380;50.822;15.790;2023-08-30T11:52:06;14.90;99.90
22426;DHT22;11380;50.822;15.790;2023-08-30T11:57:12;14.80;99.90
22426;DHT22;11380;50.822;15.790;2023-08-30T12:02:20;14.70;99.90
22426;DHT22;11380;50.822;15.790;2023-08-30T12:07:29;14.70;99.90
22426;DHT22;11380;50.822;15.790;2023-08-30T12:12:36;14.90;99.90
22426;DHT22;11380;50.822;15.790;2023-08-30T12:17:43;15.30;99.90
22426;DHT22;11380;50.822;15.790;2023-08-30T12:22:51;15.40;99.90
22426;DHT22;11380;50.822;15.790;2023-08-30T12:27:58;15.60;99.90
22426;DHT22;11380;50.822;15.790;2023-08-30T12:33:05;15.50;99.90
22426;DHT22;11380;50.822;15.790;2023-08-30T12:38:13;15.60;99.90
22426;DHT22;11380;50.822;15.790;2023-08-30T12:43:23;15.30;99.90
22426;DHT22;11380;50.822;15.790;2023-08-30T12:48:30;15.30;99.90
22426;DHT22;11380;50.822;15.790;2023-08-30T12:53:36;15.20;99.90
22426;DHT22;11380;50.822;15.790;2023-08-30T12:58:42;15.20;99.90
22426;DHT22;11380;50.822;15.790;2023-08-30T13:03:50;15.00;99.90
22426;DHT22;11380;50.822;15.790;2023-08-30T13:08:58;15.10;99.90
22426;DHT22;11380;50.822;15.790;2023-08-30T13:14:05;15.10;99.90
22426;DHT22;11380;50.822;15.790;2023-08-30T13:19:12;15.10;99.90
22426;DHT22;11380;50.822;15.790;2023-08-30T13:24:19;15.10;99.90
22426;DHT22;11380;50.822;15.790;2023-08-30T13:29:26;14.90;99.90
22426;DHT22;11380;50.822;15.790;2023-08-30T13:34:33;14.90;99.90
22426;DHT22;11380;50.822;15.790;2023-08-30T13:39:42;14.90;99.90
22426;DHT22;11380;50.822;15.790;2023-08-30T13:44:51;14.90;99.90
22426;DHT22;11380;50.822;15.790;2023-08-30T13:49:58;14.90;99.90
22426;DHT22;11380;50.822;15.790;2023-08-30T13:55:05;14.90;99.90
22426;DHT22;11380;50.822;15.790;2023-08-30T14:00:12;15.10;99.90
22426;DHT22;11380;50.822;15.790;2023-08-30T14:05:20;15.00;99.90
22426;DHT22;11380;50.822;15.790;2023-08-30T14:10:26;15.10;99.90
22426;DHT22;11380;50.822;15.790;2023-08-30T14:15:33;15.10;99.90
22426;DHT22;11380;50.822;15.790;2023-08-30T14:20:42;14.90;99.90
22426;DHT22;11380;50.822;15.790;2023-08-30T14:25:58;15.00;99.90
22426;DHT22;11380;50.822;15.790;2023-08-30T14:31:08;14.90;99.90
22426;DHT22;11380;50.822;15.790;2023-08-30T14:36:15;15.10;99.90
22426;DHT22;11380;50.822;15.790;2023-08-30T14:41:23;15.00;99.90
22426;DHT22;11380;50.822;15.790;2023-08-30T14:46:30;14.70;99.90
22426;DHT22;11380;50.822;15.790;2023-08-30T14:51:38;14.60;99.90
22426;DHT22;11380;50.822;15.790;2023-08-30T14:56:46;14.80;99.90
22426;DHT22;11380;50.822;15.790;2023-08-30T15:01:53;14.60;99.90
22426;DHT22;11380;50.822;15.790;2023-08-30T15:07:00;14.90;99.90
22426;DHT22;11380;50.822;15.790;2023-08-30T15:12:08;15.10;99.90
22426;DHT22;11380;50.822;15.790;2023-08-30T15:17:15;15.40;99.90
22426;DHT22;11380;50.822;15.790;2023-08-30T15:22:23;15.50;99.90
22426;DHT22;11380;50.822;15.790;2023-08-30T15:27:31;15.70;99.90
22426;DHT22;11380;50.822;15.790;2023-08-30T15:32:38;15.70;1.00
22426;DHT22;11380;50.822;15.790;2023-08-30T15:37:47;15.90;1.00
22426;DHT22;11380;50.822;15.790;2023-08-30T15:42:55;16.00;1.00
22426;DHT22;11380;50.822;15.790;2023-08-30T15:48:02;16.10;1.00
22426;DHT22;11380;50.822;15.790;2023-08-30T15:53:10;16.10;1.00
22426;DHT22;11380;50.822;15.790;2023-08-30T15:58:18;16.10;1.00
22426;DHT22;11380;50.822;15.790;2023-08-30T16:03:25;16.20;1.00
22426;DHT22;11380;50.822;15.790;2023-08-30T16:08:35;16.20;1.00
22426;DHT22;11380;50.822;15.790;2023-08-30T16:13:41;16.20;1.00
22426;DHT22;11380;50.822;15.790;2023-08-30T16:18:48;16.20;1.00
22426;DHT22;11380;50.822;15.790;2023-08-30T16:23:55;16.10;1.00
22426;DHT22;11380;50.822;15.790;2023-08-30T16:29:02;16.00;1.00
22426;DHT22;11380;50.822;15.790;2023-08-30T16:34:09;16.20;1.00
22426;DHT22;11380;50.822;15.790;2023-08-30T16:39:16;16.20;1.00
22426;DHT22;11380;50.822;15.790;2023-08-30T16:44:23;16.00;1.00
22426;DHT22;11380;50.822;15.790;2023-08-30T16:49:30;16.00;1.00
22426;DHT22;11380;50.822;15.790;2023-08-30T16:54:37;16.00;1.00
22426;DHT22;11380;50.822;15.790;2023-08-30T16:59:44;15.90;1.00
22426;DHT22;11380;50.822;15.790;2023-08-30T17:04:50;15.90;1.00
22426;DHT22;11380;50.822;15.790;2023-08-30T17:09:56;15.90;1.00
22426;DHT22;11380;50.822;15.790;2023-08-30T17:15:05;15.70;1.00
22426;DHT22;11380;50.822;15.790;2023-08-30T17:20:13;15.60;1.00
22426;DHT22;11380;50.822;15.790;2023-08-30T17:25:20;15.40;14.00
22426;DHT22;11380;50.822;15.790;2023-08-30T17:30:27;15.20;1.00
22426;DHT22;11380;50.822;15.790;2023-08-30T17:35:35;15.20;1.00
22426;DHT22;11380;50.822;15.790;2023-08-30T17:40:42;15.20;1.00
22426;DHT22;11380;50.822;15.790;2023-08-30T17:45:47;15.00;1.00
22426;DHT22;11380;50.822;15.790;2023-08-30T17:50:54;14.80;1.00
22426;DHT22;11380;50.822;15.790;2023-08-30T17:56:01;14.60;1.00
22426;DHT22;11380;50.822;15.790;2023-08-30T18:01:11;14.50;1.00
22426;DHT22;11380;50.822;15.790;2023-08-30T18:06:18;14.40;1.00
22426;DHT22;11380;50.822;15.790;2023-08-30T18:11:24;14.40;1.00
22426;DHT22;11380;50.822;15.790;2023-08-30T18:16:32;14.30;1.00
22426;DHT22;11380;50.822;15.790;2023-08-30T18:21:38;14.20;1.00
22426;DHT22;11380;50.822;15.790;2023-08-30T18:26:46;14.20;1.00
22426;DHT22;11380;50.822;15.790;2023-08-30T18:31:56;14.10;1.00
22426;DHT22;11380;50.822;15.790;2023-08-30T18:37:06;14.00;1.00
22426;DHT22;11380;50.822;15.790;2023-08-30T18:42:13;13.90;1.00
22426;DHT22;11380;50.822;15.790;2023-08-30T18:47:19;14.00;1.00
22426;DHT22;11380;50.822;15.790;2023-08-30T18:52:26;13.80;1.00
22426;DHT22;11380;50.822;15.790;2023-08-30T18:57:35;13.70;1.00
22426;DHT22;11380;50.822;15.790;2023-08-30T19:02:42;13.60;1.00
22426;DHT22;11380;50.822;15.790;2023-08-30T19:07:52;13.90;1.00
22426;DHT22;11380;50.822;15.790;2023-08-30T19:12:59;13.80;1.00
22426;DHT22;11380;50.822;15.790;2023-08-30T19:18:06;13.80;1.00
22426;DHT22;11380;50.822;15.790;2023-08-30T19:23:13;13.60;1.00
22426;DHT22;11380;50.822;15.790;2023-08-30T19:28:22;13.60;1.00
22426;DHT22;11380;50.822;15.790;2023-08-30T19:33:31;13.50;1.00
22426;DHT22;11380;50.822;15.790;2023-08-30T19:38:39;13.40;1.00
22426;DHT22;11380;50.822;15.790;2023-08-30T19:43:49;13.30;1.00
22426;DHT22;11380;50.822;15.790;2023-08-30T19:48:59;13.30;1.00
22426;DHT22;11380;50.822;15.790;2023-08-30T19:54:05;13.40;1.00
22426;DHT22;11380;50.822;15.790;2023-08-30T19:59:13;13.30;1.00
22426;DHT22;11380;50.822;15.790;2023-08-30T20:04:21;13.30;1.00
22426;DHT22;11380;50.822;15.790;2023-08-30T20:09:29;13.10;1.00
22426;DHT22;11380;50.822;15.790;2023-08-30T20:14:36;13.30;1.00
22426;DHT22;11380;50.822;15.790;2023-08-30T20:19:43;13.40;1.00
22426;DHT22;11380;50.822;15.790;2023-08-30T20:24:51;13.30;1.00
22426;DHT22;11380;50.822;15.790;2023-08-30T20:30:00;13.30;1.00
22426;DHT22;11380;50.822;15.790;2023-08-30T20:35:08;13.20;1.00
22426;DHT22;11380;50.822;15.790;2023-08-30T20:40:16;13.10;1.00
22426;DHT22;11380;50.822;15.790;2023-08-30T20:45:23;13.10;1.00
22426;DHT22;11380;50.822;15.790;2023-08-30T20:50:34;13.00;1.00
22426;DHT22;11380;50.822;15.790;2023-08-30T20:55:43;13.00;1.00
22426;DHT22;11380;50.822;15.790;2023-08-30T21:00:55;12.90;1.00
22426;DHT22;11380;50.822;15.790;2023-08-30T21:06:02;13.00;1.00
22426;DHT22;11380;50.822;15.790;2023-08-30T21:11:11;12.80;1.00
22426;DHT22;11380;50.822;15.790;2023-08-30T21:16:17;12.60;21.10
22426;DHT22;11380;50.822;15.790;2023-08-30T21:21:24;12.60;1.00
22426;DHT22;11380;50.822;15.790;2023-08-30T21:26:31;12.60;3.50
22426;DHT22;11380;50.822;15.790;2023-08-30T21:31:37;12.70;1.00
22426;DHT22;11380;50.822;15.790;2023-08-30T21:36:44;12.70;1.00
22426;DHT22;11380;50.822;15.790;2023-08-30T21:41:51;12.60;1.00
22426;DHT22;11380;50.822;15.790;2023-08-30T21:46:58;12.40;99.90
22426;DHT22;11380;50.822;15.790;2023-08-30T21:52:05;12.20;81.20
22426;DHT22;11380;50.822;15.790;2023-08-30T21:57:12;12.30;21.50
22426;DHT22;11380;50.822;15.790;2023-08-30T22:02:20;12.10;99.90
22426;DHT22;11380;50.822;15.790;2023-08-30T22:07:27;11.80;1.00
22426;DHT22;11380;50.822;15.790;2023-08-30T22:12:34;11.80;1.00
22426;DHT22;11380;50.822;15.790;2023-08-30T22:17:49;11.80;99.90
22426;DHT22;11380;50.822;15.790;2023-08-30T22:22:52;11.60;1.00
22426;DHT22;11380;50.822;15.790;2023-08-30T22:27:59;11.60;1.00
22426;DHT22;11380;50.822;15.790;2023-08-30T22:33:07;11.50;1.00
22426;DHT22;11380;50.822;15.790;2023-08-30T22:38:14;11.60;35.00
22426;DHT22;11380;50.822;15.790;2023-08-30T22:43:21;11.70;1.00
22426;DHT22;11380;50.822;15.790;2023-08-30T22:48:28;11.70;1.00
22426;DHT22;11380;50.822;15.790;2023-08-30T22:53:36;11.50;1.00
22426;DHT22;11380;50.822;15.790;2023-08-30T22:58:42;11.20;1.00
22426;DHT22;11380;50.822;15.790;2023-08-30T23:03:49;11.30;95.00
22426;DHT22;11380;50.822;15.790;2023-08-30T23:08:56;11.40;48.00
22426;DHT22;11380;50.822;15.790;2023-08-30T23:14:03;11.00;22.80
22426;DHT22;11380;50.822;15.790;2023-08-30T23:19:09;10.80;99.90
22426;DHT22;11380;50.822;15.790;2023-08-30T23:24:17;11.10;99.90
22426;DHT22;11380;50.822;15.790;2023-08-30T23:29:24;11.10;99.90
22426;DHT22;11380;50.822;15.790;2023-08-30T23:34:31;11.30;99.90
22426;DHT22;11380;50.822;15.790;2023-08-30T23:39:38;11.20;99.90
22426;DHT22;11380;50.822;15.790;2023-08-30T23:44:45;11.10;99.90
22426;DHT22;11380;50.822;15.790;2023-08-30T23:49:53;10.90;99.90
22426;DHT22;11380;50.822;15.790;2023-08-30T23:55:00;10.90;99.90
